sensor_id;sensor_type;location;lat;lon;timestamp;P1;durP1;ratioP1;P2;durP2;ratioP2
49610;SDS011;35515;48.766;9.176;2022-11-25T00:01:35;12.95;;;6.20;;
49610;SDS011;35515;48.766;9.176;2022-11-25T00:04:03;8.07;;;5.13;;
49610;SDS011;35515;48.766;9.176;2022-11-25T00:06:30;9.40;;;5.40;;
49610;SDS011;35515;48.766;9.176;2022-11-25T00:09:00;12.00;;;5.28;;
49610;SDS011;35515;48.766;9.176;2022-11-25T00:11:29;10.52;;;5.60;;
49610;SDS011;35515;48.766;9.176;2022-11-25T00:13:56;10.98;;;5.22;;
49610;SDS011;35515;48.766;9.176;2022-11-25T00:16:23;9.70;;;5.50;;
49610;SDS011;35515;48.766;9.176;2022-11-25T00:18:51;7.20;;;4.85;;
49610;SDS011;35515;48.766;9.176;2022-11-25T00:21:19;10.38;;;5.38;;
49610;SDS011;35515;48.766;9.176;2022-11-25T00:23:51;10.63;;;5.35;;
49610;SDS011;35515;48.766;9.176;2022-11-25T00:26:19;11.27;;;5.60;;
49610;SDS011;35515;48.766;9.176;2022-11-25T00:28:47;10.88;;;5.03;;
49610;SDS011;35515;48.766;9.176;2022-11-25T00:31:15;10.52;;;5.13;;
49610;SDS011;35515;48.766;9.176;2022-11-25T00:33:43;11.63;;;5.40;;
49610;SDS011;35515;48.766;9.176;2022-11-25T00:36:13;12.65;;;5.97;;
49610;SDS011;35515;48.766;9.176;2022-11-25T00:41:08;9.30;;;4.70;;
49610;SDS011;35515;48.766;9.176;2022-11-25T00:43:53;9.55;;;4.55;;
49610;SDS011;35515;48.766;9.176;2022-11-25T00:46:37;7.25;;;5.07;;
49610;SDS011;35515;48.766;9.176;2022-11-25T00:49:04;10.20;;;4.85;;
49610;SDS011;35515;48.766;9.176;2022-11-25T00:51:31;10.45;;;5.22;;
49610;SDS011;35515;48.766;9.176;2022-11-25T00:53:58;8.43;;;4.85;;
49610;SDS011;35515;48.766;9.176;2022-11-25T00:56:24;10.45;;;5.05;;
49610;SDS011;35515;48.766;9.176;2022-11-25T00:58:51;9.23;;;4.90;;
49610;SDS011;35515;48.766;9.176;2022-11-25T01:01:22;8.63;;;4.22;;
49610;SDS011;35515;48.766;9.176;2022-11-25T01:03:50;7.35;;;4.97;;
49610;SDS011;35515;48.766;9.176;2022-11-25T01:06:17;12.38;;;4.75;;
49610;SDS011;35515;48.766;9.176;2022-11-25T01:08:44;10.52;;;4.40;;
49610;SDS011;35515;48.766;9.176;2022-11-25T01:11:11;11.80;;;4.50;;
49610;SDS011;35515;48.766;9.176;2022-11-25T01:13:39;7.60;;;4.30;;
49610;SDS011;35515;48.766;9.176;2022-11-25T01:16:09;6.70;;;4.00;;
49610;SDS011;35515;48.766;9.176;2022-11-25T01:18:37;11.48;;;4.18;;
49610;SDS011;35515;48.766;9.176;2022-11-25T01:21:05;7.22;;;4.45;;
49610;SDS011;35515;48.766;9.176;2022-11-25T01:23:32;6.85;;;4.20;;
49610;SDS011;35515;48.766;9.176;2022-11-25T01:26:00;8.35;;;4.30;;
49610;SDS011;35515;48.766;9.176;2022-11-25T01:28:27;9.30;;;4.47;;
49610;SDS011;35515;48.766;9.176;2022-11-25T01:30:58;7.13;;;4.15;;
49610;SDS011;35515;48.766;9.176;2022-11-25T01:33:26;9.98;;;4.45;;
49610;SDS011;35515;48.766;9.176;2022-11-25T01:35:53;7.15;;;3.53;;
49610;SDS011;35515;48.766;9.176;2022-11-25T01:38:20;10.90;;;4.68;;
49610;SDS011;35515;48.766;9.176;2022-11-25T01:40:46;9.48;;;4.50;;
49610;SDS011;35515;48.766;9.176;2022-11-25T01:43:13;6.30;;;4.15;;
49610;SDS011;35515;48.766;9.176;2022-11-25T01:45:40;7.85;;;4.18;;
49610;SDS011;35515;48.766;9.176;2022-11-25T01:48:09;11.82;;;4.72;;
49610;SDS011;35515;48.766;9.176;2022-11-25T01:50:41;10.10;;;4.25;;
49610;SDS011;35515;48.766;9.176;2022-11-25T01:53:09;9.43;;;4.32;;
49610;SDS011;35515;48.766;9.176;2022-11-25T01:55:38;10.05;;;4.63;;
49610;SDS011;35515;48.766;9.176;2022-11-25T01:58:09;7.72;;;4.40;;
49610;SDS011;35515;48.766;9.176;2022-11-25T02:00:38;9.52;;;4.28;;
49610;SDS011;35515;48.766;9.176;2022-11-25T02:03:05;7.15;;;4.10;;
49610;SDS011;35515;48.766;9.176;2022-11-25T02:05:36;7.05;;;3.92;;
49610;SDS011;35515;48.766;9.176;2022-11-25T02:08:13;6.30;;;4.05;;
49610;SDS011;35515;48.766;9.176;2022-11-25T02:10:41;7.95;;;4.43;;
49610;SDS011;35515;48.766;9.176;2022-11-25T02:13:09;7.63;;;3.97;;
49610;SDS011;35515;48.766;9.176;2022-11-25T02:15:36;9.57;;;4.25;;
49610;SDS011;35515;48.766;9.176;2022-11-25T02:18:02;7.72;;;4.40;;
49610;SDS011;35515;48.766;9.176;2022-11-25T02:20:30;8.27;;;4.95;;
49610;SDS011;35515;48.766;9.176;2022-11-25T02:22:58;6.95;;;4.15;;
49610;SDS011;35515;48.766;9.176;2022-11-25T02:25:32;6.53;;;4.72;;
49610;SDS011;35515;48.766;9.176;2022-11-25T02:28:00;8.38;;;4.65;;
49610;SDS011;35515;48.766;9.176;2022-11-25T02:30:30;9.00;;;4.32;;
49610;SDS011;35515;48.766;9.176;2022-11-25T02:32:58;5.93;;;4.15;;
49610;SDS011;35515;48.766;9.176;2022-11-25T02:35:26;8.18;;;4.35;;
49610;SDS011;35515;48.766;9.176;2022-11-25T02:37:57;9.00;;;4.10;;
49610;SDS011;35515;48.766;9.176;2022-11-25T02:40:28;6.53;;;3.63;;
49610;SDS011;35515;48.766;9.176;2022-11-25T02:42:57;9.52;;;4.50;;
49610;SDS011;35515;48.766;9.176;2022-11-25T02:45:25;10.60;;;4.25;;
49610;SDS011;35515;48.766;9.176;2022-11-25T02:47:58;8.43;;;4.30;;
49610;SDS011;35515;48.766;9.176;2022-11-25T02:50:25;7.13;;;4.10;;
49610;SDS011;35515;48.766;9.176;2022-11-25T02:52:52;9.32;;;4.70;;
49610;SDS011;35515;48.766;9.176;2022-11-25T02:55:18;8.75;;;4.20;;
49610;SDS011;35515;48.766;9.176;2022-11-25T02:57:45;11.57;;;4.80;;
49610;SDS011;35515;48.766;9.176;2022-11-25T03:00:13;9.60;;;4.85;;
49610;SDS011;35515;48.766;9.176;2022-11-25T03:02:41;9.00;;;3.88;;
49610;SDS011;35515;48.766;9.176;2022-11-25T03:05:08;8.98;;;4.65;;
49610;SDS011;35515;48.766;9.176;2022-11-25T03:07:34;10.68;;;4.40;;
49610;SDS011;35515;48.766;9.176;2022-11-25T03:10:01;5.90;;;3.72;;
49610;SDS011;35515;48.766;9.176;2022-11-25T03:12:27;8.20;;;4.10;;
49610;SDS011;35515;48.766;9.176;2022-11-25T03:14:54;10.93;;;5.07;;
49610;SDS011;35515;48.766;9.176;2022-11-25T03:17:22;10.07;;;4.63;;
49610;SDS011;35515;48.766;9.176;2022-11-25T03:19:52;7.72;;;4.03;;
49610;SDS011;35515;48.766;9.176;2022-11-25T03:22:19;8.57;;;4.38;;
49610;SDS011;35515;48.766;9.176;2022-11-25T03:24:45;6.75;;;4.20;;
49610;SDS011;35515;48.766;9.176;2022-11-25T03:27:12;9.18;;;4.78;;
49610;SDS011;35515;48.766;9.176;2022-11-25T03:29:38;9.90;;;4.40;;
49610;SDS011;35515;48.766;9.176;2022-11-25T03:32:05;8.65;;;4.38;;
49610;SDS011;35515;48.766;9.176;2022-11-25T03:34:33;12.43;;;4.78;;
49610;SDS011;35515;48.766;9.176;2022-11-25T03:36:59;11.02;;;4.18;;
49610;SDS011;35515;48.766;9.176;2022-11-25T03:39:26;6.22;;;4.05;;
49610;SDS011;35515;48.766;9.176;2022-11-25T03:41:52;7.68;;;4.30;;
49610;SDS011;35515;48.766;9.176;2022-11-25T03:44:19;7.38;;;3.78;;
49610;SDS011;35515;48.766;9.176;2022-11-25T03:46:45;11.20;;;5.20;;
49610;SDS011;35515;48.766;9.176;2022-11-25T03:49:12;10.00;;;4.30;;
49610;SDS011;35515;48.766;9.176;2022-11-25T03:51:40;6.13;;;4.30;;
49610;SDS011;35515;48.766;9.176;2022-11-25T03:54:06;6.32;;;4.03;;
49610;SDS011;35515;48.766;9.176;2022-11-25T03:56:33;7.05;;;4.43;;
49610;SDS011;35515;48.766;9.176;2022-11-25T03:58:59;8.13;;;5.22;;
49610;SDS011;35515;48.766;9.176;2022-11-25T04:01:26;8.30;;;4.30;;
49610;SDS011;35515;48.766;9.176;2022-11-25T04:03:52;6.32;;;4.18;;
49610;SDS011;35515;48.766;9.176;2022-11-25T04:06:19;7.05;;;4.72;;
49610;SDS011;35515;48.766;9.176;2022-11-25T04:08:49;7.97;;;4.60;;
49610;SDS011;35515;48.766;9.176;2022-11-25T04:11:15;8.15;;;5.00;;
49610;SDS011;35515;48.766;9.176;2022-11-25T04:13:42;9.70;;;4.78;;
49610;SDS011;35515;48.766;9.176;2022-11-25T04:16:12;7.05;;;4.82;;
49610;SDS011;35515;48.766;9.176;2022-11-25T04:18:44;12.98;;;4.40;;
49610;SDS011;35515;48.766;9.176;2022-11-25T04:21:10;6.63;;;4.03;;
49610;SDS011;35515;48.766;9.176;2022-11-25T04:23:37;7.13;;;4.40;;
49610;SDS011;35515;48.766;9.176;2022-11-25T04:26:05;6.85;;;4.70;;
49610;SDS011;35515;48.766;9.176;2022-11-25T04:28:31;6.95;;;4.00;;
49610;SDS011;35515;48.766;9.176;2022-11-25T04:30:58;7.57;;;4.10;;
49610;SDS011;35515;48.766;9.176;2022-11-25T04:33:24;7.53;;;4.70;;
49610;SDS011;35515;48.766;9.176;2022-11-25T04:35:51;6.18;;;4.85;;
49610;SDS011;35515;48.766;9.176;2022-11-25T04:38:18;9.77;;;4.15;;
49610;SDS011;35515;48.766;9.176;2022-11-25T04:40:44;7.78;;;4.43;;
49610;SDS011;35515;48.766;9.176;2022-11-25T04:43:12;7.70;;;4.32;;
49610;SDS011;35515;48.766;9.176;2022-11-25T04:45:41;9.35;;;4.70;;
49610;SDS011;35515;48.766;9.176;2022-11-25T04:48:08;7.43;;;4.32;;
49610;SDS011;35515;48.766;9.176;2022-11-25T04:50:35;7.80;;;4.75;;
49610;SDS011;35515;48.766;9.176;2022-11-25T04:53:01;10.50;;;5.03;;
49610;SDS011;35515;48.766;9.176;2022-11-25T04:55:28;8.63;;;4.80;;
49610;SDS011;35515;48.766;9.176;2022-11-25T04:57:55;9.65;;;4.70;;
49610;SDS011;35515;48.766;9.176;2022-11-25T05:00:32;8.18;;;4.65;;
49610;SDS011;35515;48.766;9.176;2022-11-25T05:02:57;10.18;;;5.05;;
49610;SDS011;35515;48.766;9.176;2022-11-25T05:05:24;12.00;;;5.80;;
49610;SDS011;35515;48.766;9.176;2022-11-25T05:07:50;9.18;;;5.10;;
49610;SDS011;35515;48.766;9.176;2022-11-25T05:10:17;9.02;;;5.53;;
49610;SDS011;35515;48.766;9.176;2022-11-25T05:12:43;8.35;;;5.00;;
49610;SDS011;35515;48.766;9.176;2022-11-25T05:15:10;8.57;;;5.80;;
49610;SDS011;35515;48.766;9.176;2022-11-25T05:17:38;7.75;;;5.40;;
49610;SDS011;35515;48.766;9.176;2022-11-25T05:20:06;8.38;;;5.85;;
49610;SDS011;35515;48.766;9.176;2022-11-25T05:22:34;10.07;;;5.40;;
49610;SDS011;35515;48.766;9.176;2022-11-25T05:25:00;11.80;;;6.20;;
49610;SDS011;35515;48.766;9.176;2022-11-25T05:27:29;9.00;;;5.82;;
49610;SDS011;35515;48.766;9.176;2022-11-25T05:29:56;11.50;;;5.65;;
49610;SDS011;35515;48.766;9.176;2022-11-25T05:32:22;10.23;;;6.30;;
49610;SDS011;35515;48.766;9.176;2022-11-25T05:34:50;13.45;;;6.00;;
49610;SDS011;35515;48.766;9.176;2022-11-25T05:37:17;13.90;;;6.47;;
49610;SDS011;35515;48.766;9.176;2022-11-25T05:39:43;8.05;;;6.07;;
49610;SDS011;35515;48.766;9.176;2022-11-25T05:42:10;10.60;;;6.53;;
49610;SDS011;35515;48.766;9.176;2022-11-25T05:44:36;10.63;;;6.20;;
49610;SDS011;35515;48.766;9.176;2022-11-25T05:47:03;12.88;;;6.15;;
49610;SDS011;35515;48.766;9.176;2022-11-25T05:49:29;10.52;;;6.13;;
49610;SDS011;35515;48.766;9.176;2022-11-25T05:51:57;11.63;;;6.20;;
49610;SDS011;35515;48.766;9.176;2022-11-25T05:54:25;9.50;;;6.32;;
49610;SDS011;35515;48.766;9.176;2022-11-25T05:56:51;9.07;;;6.25;;
49610;SDS011;35515;48.766;9.176;2022-11-25T05:59:18;11.80;;;6.22;;
49610;SDS011;35515;48.766;9.176;2022-11-25T06:01:44;13.82;;;6.40;;
49610;SDS011;35515;48.766;9.176;2022-11-25T06:04:11;10.65;;;6.63;;
49610;SDS011;35515;48.766;9.176;2022-11-25T06:06:38;11.60;;;6.72;;
49610;SDS011;35515;48.766;9.176;2022-11-25T06:09:05;8.40;;;6.15;;
49610;SDS011;35515;48.766;9.176;2022-11-25T06:11:32;9.68;;;6.80;;
49610;SDS011;35515;48.766;9.176;2022-11-25T06:13:58;11.18;;;7.35;;
49610;SDS011;35515;48.766;9.176;2022-11-25T06:16:25;15.57;;;7.25;;
49610;SDS011;35515;48.766;9.176;2022-11-25T06:18:52;13.27;;;7.57;;
49610;SDS011;35515;48.766;9.176;2022-11-25T06:21:19;13.40;;;6.53;;
49610;SDS011;35515;48.766;9.176;2022-11-25T06:23:45;9.75;;;6.57;;
49610;SDS011;35515;48.766;9.176;2022-11-25T06:26:14;12.65;;;7.20;;
49610;SDS011;35515;48.766;9.176;2022-11-25T06:28:42;11.82;;;6.30;;
49610;SDS011;35515;48.766;9.176;2022-11-25T06:31:09;11.95;;;7.00;;
49610;SDS011;35515;48.766;9.176;2022-11-25T06:33:37;10.40;;;6.63;;
49610;SDS011;35515;48.766;9.176;2022-11-25T06:36:04;9.02;;;6.50;;
49610;SDS011;35515;48.766;9.176;2022-11-25T06:38:32;9.75;;;6.07;;
49610;SDS011;35515;48.766;9.176;2022-11-25T06:40:59;10.43;;;6.53;;
49610;SDS011;35515;48.766;9.176;2022-11-25T06:43:28;14.45;;;6.88;;
49610;SDS011;35515;48.766;9.176;2022-11-25T06:45:59;12.65;;;6.78;;
49610;SDS011;35515;48.766;9.176;2022-11-25T06:48:27;11.88;;;7.05;;
49610;SDS011;35515;48.766;9.176;2022-11-25T06:50:54;9.85;;;5.93;;
49610;SDS011;35515;48.766;9.176;2022-11-25T06:53:22;11.93;;;6.65;;
49610;SDS011;35515;48.766;9.176;2022-11-25T06:56:00;11.15;;;7.00;;
49610;SDS011;35515;48.766;9.176;2022-11-25T06:58:29;10.35;;;7.22;;
49610;SDS011;35515;48.766;9.176;2022-11-25T07:00:58;10.63;;;6.75;;
49610;SDS011;35515;48.766;9.176;2022-11-25T07:03:26;13.40;;;6.38;;
49610;SDS011;35515;48.766;9.176;2022-11-25T07:05:54;11.63;;;5.95;;
49610;SDS011;35515;48.766;9.176;2022-11-25T07:08:21;9.57;;;5.95;;
49610;SDS011;35515;48.766;9.176;2022-11-25T07:10:48;10.18;;;5.72;;
49610;SDS011;35515;48.766;9.176;2022-11-25T07:13:15;9.95;;;5.35;;
49610;SDS011;35515;48.766;9.176;2022-11-25T07:15:42;10.27;;;5.53;;
49610;SDS011;35515;48.766;9.176;2022-11-25T07:18:09;9.65;;;5.50;;
49610;SDS011;35515;48.766;9.176;2022-11-25T07:20:36;7.15;;;4.65;;
49610;SDS011;35515;48.766;9.176;2022-11-25T07:23:03;8.30;;;5.43;;
49610;SDS011;35515;48.766;9.176;2022-11-25T07:25:29;10.20;;;5.40;;
49610;SDS011;35515;48.766;9.176;2022-11-25T07:27:57;10.57;;;6.03;;
49610;SDS011;35515;48.766;9.176;2022-11-25T07:30:24;15.07;;;6.32;;
49610;SDS011;35515;48.766;9.176;2022-11-25T07:32:52;10.90;;;6.10;;
49610;SDS011;35515;48.766;9.176;2022-11-25T07:35:19;9.40;;;5.53;;
49610;SDS011;35515;48.766;9.176;2022-11-25T07:37:45;12.63;;;5.65;;
49610;SDS011;35515;48.766;9.176;2022-11-25T07:40:12;15.07;;;5.25;;
49610;SDS011;35515;48.766;9.176;2022-11-25T07:42:38;8.35;;;4.70;;
49610;SDS011;35515;48.766;9.176;2022-11-25T07:45:05;8.35;;;5.18;;
49610;SDS011;35515;48.766;9.176;2022-11-25T07:47:32;9.00;;;4.60;;
49610;SDS011;35515;48.766;9.176;2022-11-25T07:50:01;12.40;;;4.88;;
49610;SDS011;35515;48.766;9.176;2022-11-25T07:52:27;13.05;;;5.32;;
49610;SDS011;35515;48.766;9.176;2022-11-25T07:54:54;10.82;;;4.82;;
49610;SDS011;35515;48.766;9.176;2022-11-25T07:57:20;9.38;;;4.82;;
49610;SDS011;35515;48.766;9.176;2022-11-25T07:59:47;8.38;;;4.68;;
49610;SDS011;35515;48.766;9.176;2022-11-25T08:02:13;10.23;;;4.63;;
49610;SDS011;35515;48.766;9.176;2022-11-25T08:04:40;13.35;;;5.45;;
49610;SDS011;35515;48.766;9.176;2022-11-25T08:07:08;10.77;;;4.82;;
49610;SDS011;35515;48.766;9.176;2022-11-25T08:09:36;7.60;;;4.78;;
49610;SDS011;35515;48.766;9.176;2022-11-25T08:12:02;11.23;;;5.28;;
49610;SDS011;35515;48.766;9.176;2022-11-25T08:14:29;9.05;;;4.93;;
49610;SDS011;35515;48.766;9.176;2022-11-25T08:16:56;10.13;;;4.65;;
49610;SDS011;35515;48.766;9.176;2022-11-25T08:19:22;6.78;;;4.55;;
49610;SDS011;35515;48.766;9.176;2022-11-25T08:21:49;7.70;;;4.15;;
49610;SDS011;35515;48.766;9.176;2022-11-25T08:24:18;6.50;;;3.67;;
49610;SDS011;35515;48.766;9.176;2022-11-25T08:26:45;6.20;;;3.78;;
49610;SDS011;35515;48.766;9.176;2022-11-25T08:29:13;9.00;;;4.20;;
49610;SDS011;35515;48.766;9.176;2022-11-25T08:31:41;10.38;;;4.47;;
49610;SDS011;35515;48.766;9.176;2022-11-25T08:34:09;10.23;;;5.13;;
49610;SDS011;35515;48.766;9.176;2022-11-25T08:36:42;9.88;;;4.88;;
49610;SDS011;35515;48.766;9.176;2022-11-25T08:39:09;8.80;;;5.22;;
49610;SDS011;35515;48.766;9.176;2022-11-25T08:41:37;17.08;;;5.35;;
49610;SDS011;35515;48.766;9.176;2022-11-25T08:44:04;8.77;;;4.60;;
49610;SDS011;35515;48.766;9.176;2022-11-25T08:46:34;11.70;;;5.35;;
49610;SDS011;35515;48.766;9.176;2022-11-25T08:49:03;11.93;;;5.18;;
49610;SDS011;35515;48.766;9.176;2022-11-25T08:51:33;8.45;;;4.90;;
49610;SDS011;35515;48.766;9.176;2022-11-25T08:54:01;9.90;;;4.90;;
49610;SDS011;35515;48.766;9.176;2022-11-25T08:56:28;15.35;;;8.23;;
49610;SDS011;35515;48.766;9.176;2022-11-25T08:58:56;13.90;;;8.13;;
49610;SDS011;35515;48.766;9.176;2022-11-25T09:01:24;11.35;;;7.32;;
49610;SDS011;35515;48.766;9.176;2022-11-25T09:03:51;8.30;;;5.88;;
49610;SDS011;35515;48.766;9.176;2022-11-25T09:06:19;6.75;;;4.53;;
49610;SDS011;35515;48.766;9.176;2022-11-25T09:08:46;10.68;;;4.97;;
49610;SDS011;35515;48.766;9.176;2022-11-25T09:11:13;9.13;;;4.85;;
49610;SDS011;35515;48.766;9.176;2022-11-25T09:13:40;9.63;;;4.28;;
49610;SDS011;35515;48.766;9.176;2022-11-25T09:16:08;7.28;;;4.30;;
49610;SDS011;35515;48.766;9.176;2022-11-25T09:18:37;8.27;;;3.60;;
49610;SDS011;35515;48.766;9.176;2022-11-25T09:21:07;10.70;;;4.55;;
49610;SDS011;35515;48.766;9.176;2022-11-25T09:23:35;7.68;;;4.20;;
49610;SDS011;35515;48.766;9.176;2022-11-25T09:26:02;9.50;;;4.40;;
49610;SDS011;35515;48.766;9.176;2022-11-25T09:28:30;7.20;;;4.68;;
49610;SDS011;35515;48.766;9.176;2022-11-25T09:30:58;7.95;;;4.40;;
49610;SDS011;35515;48.766;9.176;2022-11-25T09:33:26;9.18;;;3.75;;
49610;SDS011;35515;48.766;9.176;2022-11-25T09:35:52;7.78;;;3.97;;
49610;SDS011;35515;48.766;9.176;2022-11-25T09:38:20;5.05;;;2.92;;
49610;SDS011;35515;48.766;9.176;2022-11-25T09:40:47;7.43;;;4.00;;
49610;SDS011;35515;48.766;9.176;2022-11-25T09:43:19;8.27;;;3.35;;
49610;SDS011;35515;48.766;9.176;2022-11-25T09:46:18;7.43;;;3.70;;
49610;SDS011;35515;48.766;9.176;2022-11-25T09:49:17;7.57;;;3.58;;
49610;SDS011;35515;48.766;9.176;2022-11-25T09:51:56;8.85;;;3.17;;
49610;SDS011;35515;48.766;9.176;2022-11-25T09:54:31;5.60;;;3.38;;
49610;SDS011;35515;48.766;9.176;2022-11-25T09:59:33;5.57;;;3.05;;
49610;SDS011;35515;48.766;9.176;2022-11-25T10:02:09;7.32;;;2.90;;
49610;SDS011;35515;48.766;9.176;2022-11-25T10:04:43;8.07;;;2.90;;
49610;SDS011;35515;48.766;9.176;2022-11-25T10:07:16;7.15;;;3.55;;
49610;SDS011;35515;48.766;9.176;2022-11-25T10:09:47;8.40;;;4.00;;
49610;SDS011;35515;48.766;9.176;2022-11-25T10:12:16;8.15;;;3.20;;
49610;SDS011;35515;48.766;9.176;2022-11-25T10:14:50;8.68;;;3.42;;
49610;SDS011;35515;48.766;9.176;2022-11-25T10:17:22;7.15;;;3.00;;
49610;SDS011;35515;48.766;9.176;2022-11-25T10:20:00;5.88;;;3.30;;
49610;SDS011;35515;48.766;9.176;2022-11-25T10:22:31;8.07;;;3.25;;
49610;SDS011;35515;48.766;9.176;2022-11-25T10:25:04;8.02;;;3.35;;
49610;SDS011;35515;48.766;9.176;2022-11-25T10:27:40;6.60;;;3.42;;
49610;SDS011;35515;48.766;9.176;2022-11-25T10:30:12;5.22;;;3.22;;
49610;SDS011;35515;48.766;9.176;2022-11-25T10:32:42;9.48;;;2.97;;
49610;SDS011;35515;48.766;9.176;2022-11-25T10:35:17;8.03;;;3.03;;
49610;SDS011;35515;48.766;9.176;2022-11-25T10:37:48;5.78;;;2.88;;
49610;SDS011;35515;48.766;9.176;2022-11-25T10:40:19;6.25;;;3.05;;
49610;SDS011;35515;48.766;9.176;2022-11-25T10:42:45;6.95;;;3.13;;
49610;SDS011;35515;48.766;9.176;2022-11-25T10:45:12;7.10;;;2.75;;
49610;SDS011;35515;48.766;9.176;2022-11-25T10:47:46;6.13;;;2.65;;
49610;SDS011;35515;48.766;9.176;2022-11-25T10:50:36;8.63;;;3.35;;
49610;SDS011;35515;48.766;9.176;2022-11-25T10:53:13;8.40;;;3.13;;
49610;SDS011;35515;48.766;9.176;2022-11-25T10:55:55;8.50;;;2.65;;
49610;SDS011;35515;48.766;9.176;2022-11-25T10:58:25;5.78;;;2.88;;
49610;SDS011;35515;48.766;9.176;2022-11-25T11:01:05;9.68;;;2.92;;
49610;SDS011;35515;48.766;9.176;2022-11-25T11:03:50;5.82;;;2.90;;
49610;SDS011;35515;48.766;9.176;2022-11-25T11:06:28;10.95;;;4.28;;
49610;SDS011;35515;48.766;9.176;2022-11-25T11:08:57;13.77;;;3.92;;
49610;SDS011;35515;48.766;9.176;2022-11-25T11:11:24;9.38;;;3.35;;
49610;SDS011;35515;48.766;9.176;2022-11-25T11:13:56;8.93;;;2.80;;
49610;SDS011;35515;48.766;9.176;2022-11-25T11:16:28;6.57;;;2.65;;
49610;SDS011;35515;48.766;9.176;2022-11-25T11:18:56;7.28;;;3.17;;
49610;SDS011;35515;48.766;9.176;2022-11-25T11:21:27;7.15;;;2.97;;
49610;SDS011;35515;48.766;9.176;2022-11-25T11:23:57;5.97;;;2.55;;
49610;SDS011;35515;48.766;9.176;2022-11-25T11:26:25;7.60;;;3.10;;
49610;SDS011;35515;48.766;9.176;2022-11-25T11:28:57;7.03;;;2.85;;
49610;SDS011;35515;48.766;9.176;2022-11-25T11:31:26;9.35;;;3.03;;
49610;SDS011;35515;48.766;9.176;2022-11-25T11:33:57;7.13;;;3.88;;
49610;SDS011;35515;48.766;9.176;2022-11-25T11:36:36;7.82;;;3.47;;
49610;SDS011;35515;48.766;9.176;2022-11-25T11:39:18;7.05;;;4.30;;
49610;SDS011;35515;48.766;9.176;2022-11-25T11:41:54;14.50;;;7.53;;
49610;SDS011;35515;48.766;9.176;2022-11-25T11:44:29;15.27;;;7.88;;
49610;SDS011;35515;48.766;9.176;2022-11-25T11:47:04;16.65;;;7.70;;
49610;SDS011;35515;48.766;9.176;2022-11-25T11:49:45;14.38;;;8.10;;
49610;SDS011;35515;48.766;9.176;2022-11-25T11:52:25;12.57;;;8.10;;
49610;SDS011;35515;48.766;9.176;2022-11-25T11:55:04;12.32;;;7.47;;
49610;SDS011;35515;48.766;9.176;2022-11-25T11:57:47;12.48;;;7.20;;
49610;SDS011;35515;48.766;9.176;2022-11-25T12:00:24;15.43;;;7.07;;
49610;SDS011;35515;48.766;9.176;2022-11-25T12:02:55;12.50;;;6.80;;
49610;SDS011;35515;48.766;9.176;2022-11-25T12:05:30;13.02;;;6.60;;
49610;SDS011;35515;48.766;9.176;2022-11-25T12:08:03;13.95;;;6.93;;
49610;SDS011;35515;48.766;9.176;2022-11-25T12:10:35;14.93;;;7.05;;
49610;SDS011;35515;48.766;9.176;2022-11-25T12:13:09;12.98;;;7.25;;
49610;SDS011;35515;48.766;9.176;2022-11-25T12:15:42;12.43;;;6.32;;
49610;SDS011;35515;48.766;9.176;2022-11-25T12:18:16;13.63;;;6.38;;
49610;SDS011;35515;48.766;9.176;2022-11-25T12:20:51;12.85;;;6.10;;
49610;SDS011;35515;48.766;9.176;2022-11-25T12:23:25;17.60;;;6.65;;
49610;SDS011;35515;48.766;9.176;2022-11-25T12:26:02;11.52;;;6.05;;
49610;SDS011;35515;48.766;9.176;2022-11-25T12:28:37;13.77;;;5.70;;
49610;SDS011;35515;48.766;9.176;2022-11-25T12:31:10;11.25;;;6.40;;
49610;SDS011;35515;48.766;9.176;2022-11-25T12:33:45;11.25;;;6.05;;
49610;SDS011;35515;48.766;9.176;2022-11-25T12:36:21;13.98;;;5.70;;
49610;SDS011;35515;48.766;9.176;2022-11-25T12:38:59;9.05;;;5.07;;
49610;SDS011;35515;48.766;9.176;2022-11-25T12:41:34;10.93;;;5.15;;
49610;SDS011;35515;48.766;9.176;2022-11-25T12:44:07;9.73;;;4.65;;
49610;SDS011;35515;48.766;9.176;2022-11-25T12:46:43;9.55;;;4.75;;
49610;SDS011;35515;48.766;9.176;2022-11-25T12:49:13;12.00;;;7.28;;
49610;SDS011;35515;48.766;9.176;2022-11-25T12:54:48;13.65;;;5.00;;
49610;SDS011;35515;48.766;9.176;2022-11-25T12:57:30;11.45;;;5.05;;
49610;SDS011;35515;48.766;9.176;2022-11-25T13:00:11;11.50;;;5.65;;
49610;SDS011;35515;48.766;9.176;2022-11-25T13:05:58;13.90;;;7.22;;
49610;SDS011;35515;48.766;9.176;2022-11-25T13:08:44;11.93;;;6.63;;
49610;SDS011;35515;48.766;9.176;2022-11-25T13:11:26;15.25;;;6.65;;
49610;SDS011;35515;48.766;9.176;2022-11-25T13:14:12;11.30;;;6.70;;
49610;SDS011;35515;48.766;9.176;2022-11-25T13:16:49;15.50;;;6.93;;
49610;SDS011;35515;48.766;9.176;2022-11-25T13:19:17;12.55;;;8.02;;
49610;SDS011;35515;48.766;9.176;2022-11-25T13:21:57;15.27;;;8.65;;
49610;SDS011;35515;48.766;9.176;2022-11-25T13:24:25;17.80;;;9.25;;
49610;SDS011;35515;48.766;9.176;2022-11-25T13:26:58;16.88;;;8.65;;
49610;SDS011;35515;48.766;9.176;2022-11-25T13:32:25;16.73;;;7.00;;
49610;SDS011;35515;48.766;9.176;2022-11-25T13:41:03;17.05;;;7.65;;
49610;SDS011;35515;48.766;9.176;2022-11-25T13:43:58;12.38;;;7.72;;
49610;SDS011;35515;48.766;9.176;2022-11-25T13:46:27;15.45;;;7.60;;
49610;SDS011;35515;48.766;9.176;2022-11-25T13:48:59;12.88;;;7.40;;
49610;SDS011;35515;48.766;9.176;2022-11-25T13:51:26;13.07;;;6.80;;
49610;SDS011;35515;48.766;9.176;2022-11-25T13:53:54;9.98;;;5.65;;
49610;SDS011;35515;48.766;9.176;2022-11-25T13:56:26;9.27;;;5.65;;
49610;SDS011;35515;48.766;9.176;2022-11-25T14:08:18;11.63;;;4.22;;
49610;SDS011;35515;48.766;9.176;2022-11-25T14:10:56;6.85;;;3.90;;
49610;SDS011;35515;48.766;9.176;2022-11-25T14:13:37;8.65;;;3.67;;
49610;SDS011;35515;48.766;9.176;2022-11-25T14:16:22;10.18;;;3.75;;
49610;SDS011;35515;48.766;9.176;2022-11-25T14:19:13;8.68;;;3.17;;
49610;SDS011;35515;48.766;9.176;2022-11-25T14:22:08;7.50;;;3.60;;
49610;SDS011;35515;48.766;9.176;2022-11-25T14:24:48;8.35;;;3.88;;
49610;SDS011;35515;48.766;9.176;2022-11-25T14:27:17;9.18;;;3.60;;
49610;SDS011;35515;48.766;9.176;2022-11-25T14:29:47;7.43;;;2.95;;
49610;SDS011;35515;48.766;9.176;2022-11-25T14:32:20;10.55;;;3.33;;
49610;SDS011;35515;48.766;9.176;2022-11-25T14:34:52;9.10;;;2.90;;
49610;SDS011;35515;48.766;9.176;2022-11-25T14:37:25;8.52;;;2.90;;
49610;SDS011;35515;48.766;9.176;2022-11-25T14:39:55;9.18;;;3.20;;
49610;SDS011;35515;48.766;9.176;2022-11-25T14:42:26;10.18;;;3.35;;
49610;SDS011;35515;48.766;9.176;2022-11-25T14:44:58;6.75;;;2.80;;
49610;SDS011;35515;48.766;9.176;2022-11-25T14:47:26;6.53;;;2.70;;
49610;SDS011;35515;48.766;9.176;2022-11-25T14:49:55;7.90;;;2.70;;
49610;SDS011;35515;48.766;9.176;2022-11-25T14:52:24;8.13;;;2.88;;
49610;SDS011;35515;48.766;9.176;2022-11-25T14:54:53;10.10;;;2.60;;
49610;SDS011;35515;48.766;9.176;2022-11-25T14:57:22;8.50;;;3.17;;
49610;SDS011;35515;48.766;9.176;2022-11-25T14:59:51;9.63;;;3.45;;
49610;SDS011;35515;48.766;9.176;2022-11-25T15:02:24;19.83;;;3.20;;
49610;SDS011;35515;48.766;9.176;2022-11-25T15:05:00;7.95;;;2.75;;
49610;SDS011;35515;48.766;9.176;2022-11-25T15:07:27;7.93;;;2.97;;
49610;SDS011;35515;48.766;9.176;2022-11-25T15:09:57;8.35;;;2.55;;
49610;SDS011;35515;48.766;9.176;2022-11-25T15:12:25;7.22;;;2.72;;
49610;SDS011;35515;48.766;9.176;2022-11-25T15:14:56;11.35;;;2.58;;
49610;SDS011;35515;48.766;9.176;2022-11-25T15:17:24;8.27;;;2.97;;
49610;SDS011;35515;48.766;9.176;2022-11-25T15:19:54;7.10;;;2.50;;
49610;SDS011;35515;48.766;9.176;2022-11-25T15:22:23;8.10;;;2.70;;
49610;SDS011;35515;48.766;9.176;2022-11-25T15:24:50;12.50;;;3.33;;
49610;SDS011;35515;48.766;9.176;2022-11-25T15:27:18;9.35;;;2.65;;
49610;SDS011;35515;48.766;9.176;2022-11-25T15:29:47;7.47;;;2.90;;